Time;durP1;ratioP1;P1;durP2;ratioP2;P2;SDS_P1;SDS_P2;PMS_P1;PMS_P2;Temp;Humidity;BMP_temperature;BMP_pressure;BME280_temperature;BME280_humidity;BME280_pressure;Samples;Min_cycle;Max_cycle;Signal;HPM_P1;HPM_P2
2022/06/05 00:01:36;;;;;;;6.40;5.10;;;;;;100886.66;;;;107544;1279;29644;-29
2022/06/05 00:04:55;;;;;;;6.70;5.00;;;;;;100889.52;;;;107524;1279;28962;-29
2022/06/05 00:07:46;;;;;;;6.70;5.20;;;;;;100888.71;;;;107553;1278;26761;-29
2022/06/05 00:10:21;;;;;;;7.40;5.70;;;;;;100895.02;;;;107553;1278;26493;-29
2022/06/05 00:13:32;;;;;;;7.70;5.00;;;;;;100897.73;;;;107538;1278;27801;-29
2022/06/05 00:15:59;;;;;;;7.50;5.10;;;;;;100900.53;;;;107538;1278;28921;-29
2022/06/05 00:18:26;;;;;;;6.90;4.80;;;;;;100899.95;;;;107556;1278;28085;-29
2022/06/05 00:20:53;;;;;;;5.80;4.70;;;;;;100897.15;;;;107537;1277;29909;-29
2022/06/05 00:23:20;;;;;;;6.00;4.90;;;;;;100894.97;;;;107554;1278;27731;-29
2022/06/05 00:26:22;;;;;;;6.90;4.50;;;;;;100896.87;;;;107528;1277;29946;-29
2022/06/05 00:29:18;;;;;;;6.70;5.20;;;;;;100892.92;;;;107510;1277;26651;-29
2022/06/05 00:32:19;;;;;;;5.70;4.80;;;;;;100894.98;;;;107543;1278;27719;-29
2022/06/05 00:34:46;;;;;;;7.10;4.70;;;;;;100896.52;;;;107540;1278;28831;-29
2022/06/05 00:37:28;;;;;;;6.50;5.10;;;;;;100893.86;;;;107552;1278;29020;-28
2022/06/05 00:40:30;;;;;;;6.20;4.80;;;;;;100892.13;;;;107543;1277;27801;-29
2022/06/05 00:42:58;;;;;;;6.30;4.80;;;;;;100889.27;;;;107521;1278;28877;-29
2022/06/05 00:45:26;;;;;;;6.30;5.00;;;;;;100890.23;;;;107512;1278;28631;-29
2022/06/05 00:47:53;;;;;;;6.20;4.70;;;;;;100889.77;;;;107564;1278;27504;-29
2022/06/05 00:50:25;;;;;;;6.90;5.00;;;;;;100883.33;;;;107500;1279;28891;-29
2022/06/05 00:52:58;;;;;;;5.90;4.70;;;;;;100883.09;;;;107547;1277;27438;-28
2022/06/05 00:55:29;;;;;;;5.50;4.80;;;;;;100886.81;;;;107554;1277;29011;-28
2022/06/05 00:57:56;;;;;;;5.50;4.80;;;;;;100890.14;;;;107544;1277;29079;-28
2022/06/05 01:00:29;;;;;;;5.60;4.50;;;;;;100886.59;;;;107486;1278;29014;-28
2022/06/05 01:02:58;;;;;;;6.10;4.80;;;;;;100885.23;;;;107561;1277;27630;-28
2022/06/05 01:05:27;;;;;;;5.90;4.70;;;;;;100885.09;;;;107547;1276;27865;-28
2022/06/05 01:07:54;;;;;;;6.00;4.50;;;;;;100881.80;;;;107532;1278;26388;-28
2022/06/05 01:10:26;;;;;;;5.80;4.40;;;;;;100875.37;;;;107563;1277;27989;-28
2022/06/05 01:13:25;;;;;;;5.50;4.40;;;;;;100875.86;;;;107544;1278;28326;-29
2022/06/05 01:16:20;;;;;;;5.60;4.10;;;;;;100879.52;;;;107469;1278;28835;-29
2022/06/05 01:19:35;;;;;;;5.80;4.80;;;;;;100880.45;;;;107556;1278;27859;-29
2022/06/05 01:22:32;;;;;;;6.70;4.70;;;;;;100876.06;;;;107551;1278;29883;-29
2022/06/05 01:25:36;;;;;;;6.30;4.50;;;;;;100874.34;;;;107525;1278;30003;-29
2022/06/05 01:28:17;;;;;;;6.00;4.30;;;;;;100869.34;;;;107535;1278;28947;-29
2022/06/05 01:31:25;;;;;;;5.70;4.80;;;;;;100871.08;;;;107520;1279;28859;-29
2022/06/05 01:34:32;;;;;;;5.90;4.40;;;;;;100874.05;;;;107517;1277;28996;-29
2022/06/05 01:37:20;;;;;;;6.20;4.20;;;;;;100874.98;;;;107494;1279;27974;-29
2022/06/05 01:40:10;;;;;;;5.20;4.30;;;;;;100882.53;;;;107555;1278;28957;-29
2022/06/05 01:42:41;;;;;;;5.70;4.20;;;;;;100884.95;;;;107488;1278;29841;-29
2022/06/05 01:45:15;;;;;;;5.70;4.40;;;;;;100892.13;;;;107536;1278;29742;-29
2022/06/05 01:47:45;;;;;;;5.20;4.40;;;;;;100891.56;;;;107565;1278;27828;-29
2022/06/05 01:50:20;;;;;;;5.80;4.30;;;;;;100897.66;;;;107557;1278;28963;-29
2022/06/05 01:52:58;;;;;;;6.30;4.50;;;;;;100901.10;;;;107547;1278;28960;-29
2022/06/05 01:55:37;;;;;;;5.30;4.00;;;;;;100906.64;;;;107500;1279;29084;-29
2022/06/05 01:58:07;;;;;;;5.90;4.50;;;;;;100909.65;;;;107557;1279;28903;-29
2022/06/05 02:00:34;;;;;;;6.00;3.90;;;;;;100911.50;;;;107551;1278;27567;-28
2022/06/05 02:03:22;;;;;;;5.10;4.00;;;;;;100910.00;;;;107487;1277;29879;-28
2022/06/05 02:06:01;;;;;;;6.20;4.30;;;;;;100912.24;;;;107537;1278;28908;-29
2022/06/05 02:08:39;;;;;;;6.00;4.40;;;;;;100915.59;;;;107563;1279;29813;-29
2022/06/05 02:11:23;;;;;;;5.30;3.90;;;;;;100914.14;;;;107544;1277;26828;-28
2022/06/05 02:13:55;;;;;;;5.60;4.20;;;;;;100918.40;;;;107535;1279;27782;-29
2022/06/05 02:16:24;;;;;;;5.10;3.90;;;;;;100930.92;;;;107531;1278;26469;-29
2022/06/05 02:18:51;;;;;;;5.60;3.80;;;;;;100939.38;;;;107561;1277;28890;-29
2022/06/05 02:21:19;;;;;;;5.30;3.90;;;;;;100939.70;;;;107540;1278;28863;-29
2022/06/05 02:23:46;;;;;;;6.70;3.90;;;;;;100940.98;;;;107553;1278;27090;-29
2022/06/05 02:26:12;;;;;;;5.80;4.00;;;;;;100943.11;;;;107550;1279;28917;-29
2022/06/05 02:28:39;;;;;;;4.90;3.70;;;;;;100941.42;;;;107547;1277;28970;-29
2022/06/05 02:32:09;;;;;;;6.90;4.00;;;;;;100941.55;;;;107488;1279;27962;-29
2022/06/05 02:35:13;;;;;;;6.50;3.90;;;;;;100945.89;;;;107190;1278;28916;-29
2022/06/05 02:38:09;;;;;;;5.70;3.90;;;;;;100941.88;;;;107523;1279;28875;-29
2022/06/05 02:41:01;;;;;;;5.70;4.00;;;;;;100944.02;;;;107545;1278;29345;-29
2022/06/05 02:47:29;;;;;;;4.80;3.50;;;;;;100943.13;;;;107534;1278;28976;-28
2022/06/05 02:50:25;;;;;;;5.20;3.70;;;;;;100947.09;;;;107516;1279;29889;-28
2022/06/05 02:52:52;;;;;;;5.50;3.80;;;;;;100954.06;;;;107549;1278;28983;-28
2022/06/05 02:55:21;;;;;;;4.90;3.30;;;;;;100959.06;;;;107542;1279;29030;-28
2022/06/05 02:57:49;;;;;;;6.40;3.90;;;;;;100966.40;;;;107511;1278;29861;-29
2022/06/05 03:00:21;;;;;;;5.00;3.80;;;;;;100966.92;;;;107534;1277;28967;-29
2022/06/05 03:05:35;;;;;;;5.10;3.70;;;;;;100974.82;;;;107520;1278;26726;-29
2022/06/05 03:08:03;;;;;;;5.40;3.60;;;;;;100977.41;;;;107554;1277;29004;-29
2022/06/05 03:10:29;;;;;;;6.50;4.50;;;;;;100981.48;;;;107564;1278;28968;-28
2022/06/05 03:12:56;;;;;;;4.90;3.20;;;;;;100977.95;;;;107557;1277;28987;-28
2022/06/05 03:15:23;;;;;;;5.00;3.80;;;;;;100976.34;;;;107579;1278;28056;-28
2022/06/05 03:17:49;;;;;;;5.50;3.50;;;;;;100980.98;;;;107579;1279;27822;-28
2022/06/05 03:20:17;;;;;;;5.60;3.70;;;;;;100978.27;;;;107575;1277;28052;-28
2022/06/05 03:22:45;;;;;;;5.40;3.30;;;;;;100972.16;;;;107606;1278;29877;-28
2022/06/05 03:25:20;;;;;;;5.70;3.70;;;;;;100973.42;;;;107525;1278;28915;-28
2022/06/05 03:27:47;;;;;;;4.90;3.70;;;;;;100973.73;;;;107523;1279;27715;-28
2022/06/05 03:30:16;;;;;;;5.00;3.90;;;;;;100973.29;;;;107493;1279;27812;-28
2022/06/05 03:32:44;;;;;;;4.80;3.50;;;;;;100981.30;;;;107568;1277;29064;-28
2022/06/05 03:35:11;;;;;;;4.70;3.30;;;;;;100986.20;;;;107502;1279;28876;-28
2022/06/05 03:37:37;;;;;;;5.70;4.10;;;;;;100985.89;;;;107544;1277;28862;-28
2022/06/05 03:40:16;;;;;;;5.60;3.70;;;;;;100985.95;;;;107513;1279;28516;-28
2022/06/05 03:42:43;;;;;;;7.00;4.20;;;;;;100991.02;;;;107535;1279;28794;-28
2022/06/05 03:45:16;;;;;;;5.00;4.00;;;;;;100994.52;;;;107480;1279;28938;-28
2022/06/05 03:47:44;;;;;;;5.00;3.60;;;;;;100998.90;;;;107549;1278;26953;-29
2022/06/05 03:50:12;;;;;;;5.70;3.60;;;;;;101004.02;;;;107588;1278;28982;-28
2022/06/05 03:52:38;;;;;;;5.40;3.80;;;;;;101006.54;;;;107427;1281;29881;-28
2022/06/05 03:55:06;;;;;;;4.80;3.50;;;;;;101006.09;;;;107520;1278;28935;-28
2022/06/05 03:57:33;;;;;;;5.00;3.50;;;;;;101009.77;;;;107585;1278;29302;-28
2022/06/05 04:00:00;;;;;;;5.30;3.60;;;;;;101010.35;;;;107536;1278;28925;-28
2022/06/05 04:02:27;;;;;;;5.20;3.70;;;;;;101011.69;;;;107507;1279;26570;-29
2022/06/05 04:04:54;;;;;;;5.50;3.60;;;;;;101004.30;;;;107491;1279;28137;-28
2022/06/05 04:07:20;;;;;;;5.50;3.80;;;;;;101008.13;;;;107531;1278;29864;-28
2022/06/05 04:09:47;;;;;;;5.20;4.20;;;;;;101005.09;;;;107517;1279;29164;-28
2022/06/05 04:12:14;;;;;;;5.70;4.30;;;;;;101007.84;;;;107507;1279;29875;-28
2022/06/05 04:14:40;;;;;;;6.30;3.80;;;;;;101006.40;;;;107546;1278;29847;-28
2022/06/05 04:17:07;;;;;;;5.10;3.90;;;;;;101006.36;;;;107526;1277;27769;-28
2022/06/05 04:19:33;;;;;;;5.80;4.10;;;;;;101010.72;;;;107505;1278;28087;-28
2022/06/05 04:22:00;;;;;;;5.30;4.30;;;;;;101009.85;;;;107531;1279;27888;-28
2022/06/05 04:24:27;;;;;;;5.20;4.10;;;;;;101009.89;;;;107533;1278;28947;-28
2022/06/05 04:26:54;;;;;;;5.90;4.10;;;;;;101009.12;;;;107514;1279;27538;-29
2022/06/05 04:29:20;;;;;;;5.40;4.10;;;;;;101013.05;;;;107482;1279;28759;-29
2022/06/05 04:31:48;;;;;;;4.70;3.70;;;;;;101015.27;;;;107559;1278;28896;-29
2022/06/05 04:34:22;;;;;;;5.70;4.00;;;;;;101019.95;;;;107566;1277;28989;-29
2022/06/05 04:36:49;;;;;;;5.10;3.60;;;;;;101022.92;;;;107552;1277;28928;-29
2022/06/05 04:39:16;;;;;;;5.90;4.30;;;;;;101020.54;;;;107535;1279;26791;-29
2022/06/05 04:41:45;;;;;;;5.40;4.00;;;;;;101017.83;;;;107549;1277;29977;-29
2022/06/05 04:44:14;;;;;;;6.30;4.40;;;;;;101021.36;;;;107519;1279;26710;-29
2022/06/05 04:46:41;;;;;;;7.10;4.10;;;;;;101021.80;;;;107579;1280;29122;-29
2022/06/05 04:49:09;;;;;;;5.70;4.40;;;;;;101021.95;;;;107548;1278;27536;-29
2022/06/05 04:51:37;;;;;;;6.20;4.10;;;;;;101020.73;;;;107549;1278;28237;-29
2022/06/05 04:54:08;;;;;;;5.30;4.00;;;;;;101024.30;;;;107545;1278;28912;-29
2022/06/05 04:56:34;;;;;;;6.10;4.10;;;;;;101027.71;;;;107578;1277;28900;-29
2022/06/05 04:59:03;;;;;;;5.90;3.90;;;;;;101031.02;;;;107497;1279;28157;-29
2022/06/05 05:01:33;;;;;;;6.00;4.40;;;;;;101030.80;;;;107576;1279;26813;-29
2022/06/05 05:04:09;;;;;;;5.80;4.00;;;;;;101027.22;;;;107547;1279;29734;-29
2022/06/05 05:06:37;;;;;;;6.10;4.10;;;;;;101029.91;;;;107560;1277;27883;-29
2022/06/05 05:09:04;;;;;;;5.40;4.10;;;;;;101031.38;;;;107554;1278;29937;-29
2022/06/05 05:11:32;;;;;;;6.70;4.20;;;;;;101030.36;;;;107537;1278;29663;-29
2022/06/05 05:14:00;;;;;;;5.60;4.20;;;;;;101030.31;;;;107547;1279;28964;-29
2022/06/05 05:16:28;;;;;;;5.60;4.30;;;;;;101032.04;;;;107556;1278;26398;-29
2022/06/05 05:18:55;;;;;;;5.70;4.10;;;;;;101032.02;;;;107538;1277;29925;-29
2022/06/05 05:21:25;;;;;;;5.20;3.50;;;;;;101030.68;;;;107499;1279;26690;-29
2022/06/05 05:23:53;;;;;;;5.40;3.90;;;;;;101029.61;;;;107499;1279;29091;-29
2022/06/05 05:26:26;;;;;;;5.20;4.20;;;;;;101031.80;;;;107557;1277;28228;-29
2022/06/05 05:28:54;;;;;;;5.40;4.30;;;;;;101033.08;;;;107390;1278;28999;-29
2022/06/05 05:31:25;;;;;;;5.00;3.80;;;;;;101032.77;;;;107550;1278;27726;-29
2022/06/05 05:33:53;;;;;;;5.10;4.10;;;;;;101027.62;;;;107517;1278;29711;-29
2022/06/05 05:36:23;;;;;;;5.90;4.30;;;;;;101028.67;;;;107576;1278;27966;-29
2022/06/05 05:44:25;;;;;;;5.00;3.80;;;;;;101034.66;;;;107499;1279;27732;-29
2022/06/05 05:46:51;;;;;;;5.80;4.20;;;;;;101033.36;;;;107566;1276;28970;-29
2022/06/05 05:49:18;;;;;;;5.70;3.70;;;;;;101036.62;;;;107392;1279;29056;-27
2022/06/05 05:51:45;;;;;;;5.30;4.20;;;;;;101036.89;;;;107525;1278;29000;-27
2022/06/05 05:54:12;;;;;;;6.10;4.00;;;;;;101036.27;;;;107532;1278;27979;-29
2022/06/05 05:56:39;;;;;;;5.10;3.90;;;;;;101033.23;;;;107549;1278;27663;-27
2022/06/05 05:59:05;;;;;;;6.20;3.80;;;;;;101037.08;;;;107550;1278;28992;-28
2022/06/05 06:01:32;;;;;;;5.60;4.10;;;;;;101034.67;;;;107510;1279;29047;-28
2022/06/05 06:03:59;;;;;;;5.20;3.80;;;;;;101035.55;;;;107498;1278;26369;-28
2022/06/05 06:06:30;;;;;;;5.50;4.20;;;;;;101034.50;;;;107490;1279;28944;-28
2022/06/05 06:08:58;;;;;;;5.80;4.00;;;;;;101035.61;;;;107536;1279;29815;-29
2022/06/05 06:11:26;;;;;;;5.40;4.20;;;;;;101036.05;;;;107575;1277;28915;-29
2022/06/05 06:13:53;;;;;;;5.70;4.10;;;;;;101036.29;;;;107567;1278;29999;-29
2022/06/05 06:16:20;;;;;;;6.80;4.40;;;;;;101033.55;;;;107557;1277;29018;-29
2022/06/05 06:18:46;;;;;;;5.40;3.90;;;;;;101036.00;;;;107540;1278;28933;-29
2022/06/05 06:21:13;;;;;;;5.10;4.00;;;;;;101038.56;;;;107527;1280;29880;-28
2022/06/05 06:23:40;;;;;;;6.70;4.00;;;;;;101037.59;;;;107521;1279;29668;-28
2022/06/05 06:26:08;;;;;;;5.30;4.10;;;;;;101038.34;;;;107546;1278;29062;-28
2022/06/05 06:28:34;;;;;;;5.10;3.70;;;;;;101035.85;;;;107561;1278;28976;-28
2022/06/05 06:31:10;;;;;;;5.00;3.50;;;;;;101038.78;;;;107527;1278;28910;-28
2022/06/05 06:33:38;;;;;;;5.50;3.90;;;;;;101036.98;;;;107566;1279;27963;-28
2022/06/05 06:36:10;;;;;;;5.30;4.10;;;;;;101034.61;;;;107501;1280;27957;-28
2022/06/05 06:38:37;;;;;;;6.10;4.10;;;;;;101034.30;;;;107546;1280;28998;-28
2022/06/05 06:41:17;;;;;;;5.00;3.90;;;;;;101036.04;;;;107512;1278;29874;-28
2022/06/05 06:43:45;;;;;;;6.00;4.20;;;;;;101039.69;;;;107506;1279;29840;-28
2022/06/05 06:46:13;;;;;;;5.70;4.10;;;;;;101041.96;;;;107537;1278;28943;-28
2022/06/05 06:48:40;;;;;;;5.70;3.90;;;;;;101042.11;;;;107535;1279;28211;-29
2022/06/05 06:51:08;;;;;;;5.20;4.20;;;;;;101038.09;;;;107489;1279;29130;-29
2022/06/05 06:53:37;;;;;;;5.00;3.80;;;;;;101036.93;;;;107555;1278;27549;-29
2022/06/05 06:56:12;;;;;;;6.10;4.10;;;;;;101032.76;;;;107541;1279;27797;-28
2022/06/05 06:58:41;;;;;;;5.70;4.20;;;;;;101032.98;;;;107387;1279;27754;-28
2022/06/05 07:01:08;;;;;;;5.50;4.30;;;;;;101033.78;;;;107559;1279;29001;-28
2022/06/05 07:03:36;;;;;;;5.50;4.00;;;;;;101033.59;;;;107569;1278;28966;-28
2022/06/05 07:06:06;;;;;;;5.30;4.00;;;;;;101035.39;;;;107574;1279;26371;-28
2022/06/05 07:08:33;;;;;;;5.50;4.10;;;;;;101032.35;;;;107596;1278;28601;-28
2022/06/05 07:11:00;;;;;;;5.50;4.10;;;;;;101033.07;;;;107582;1277;27645;-28
2022/06/05 07:13:27;;;;;;;5.70;4.00;;;;;;101029.90;;;;107556;1277;29594;-28
2022/06/05 07:15:53;;;;;;;7.00;3.90;;;;;;101023.59;;;;107552;1278;27283;-28
2022/06/05 07:18:20;;;;;;;5.90;4.20;;;;;;101020.63;;;;107529;1279;30001;-28
2022/06/05 07:20:47;;;;;;;5.50;3.90;;;;;;101017.92;;;;107521;1278;27574;-28
2022/06/05 07:23:14;;;;;;;5.50;3.50;;;;;;101016.75;;;;107535;1277;28921;-28
2022/06/05 07:25:50;;;;;;;5.10;3.80;;;;;;101016.38;;;;107569;1277;26529;-28
2022/06/05 07:28:19;;;;;;;5.30;3.80;;;;;;101014.80;;;;107569;1278;29907;-28
2022/06/05 07:30:48;;;;;;;5.40;4.10;;;;;;101014.48;;;;107605;1278;28866;-28
2022/06/05 07:33:16;;;;;;;5.70;4.10;;;;;;101014.09;;;;107611;1278;28906;-28
2022/06/05 07:35:44;;;;;;;5.40;3.80;;;;;;101012.77;;;;107604;1278;27669;-28
2022/06/05 07:38:11;;;;;;;6.00;4.00;;;;;;101015.13;;;;107539;1278;27804;-29
2022/06/05 07:40:42;;;;;;;5.70;3.70;;;;;;101012.92;;;;107542;1278;30073;-28
2022/06/05 07:43:10;;;;;;;5.20;3.70;;;;;;101013.51;;;;107559;1277;27570;-28
2022/06/05 07:45:38;;;;;;;5.40;3.80;;;;;;101012.39;;;;107553;1278;27968;-28
2022/06/05 07:48:05;;;;;;;5.50;3.90;;;;;;101014.94;;;;107510;1279;28899;-28
2022/06/05 07:50:32;;;;;;;5.20;3.80;;;;;;101014.55;;;;107505;1279;26745;-28
2022/06/05 07:55:44;;;;;;;4.90;3.70;;;;;;101015.67;;;;107558;1278;29619;-28
2022/06/05 07:58:11;;;;;;;6.10;3.80;;;;;;101015.86;;;;107537;1277;28919;-28
2022/06/05 08:00:38;;;;;;;5.90;3.90;;;;;;101017.12;;;;107510;1278;29105;-28
2022/06/05 08:03:06;;;;;;;5.00;3.70;;;;;;101018.74;;;;107510;1278;29839;-28
2022/06/05 08:05:32;;;;;;;4.50;3.20;;;;;;101017.53;;;;107579;1278;27460;-28
2022/06/05 08:07:59;;;;;;;6.50;3.80;;;;;;101017.36;;;;107550;1277;29042;-29
2022/06/05 08:10:26;;;;;;;5.30;3.60;;;;;;101019.26;;;;107487;1279;28799;-29
2022/06/05 08:12:52;;;;;;;4.90;3.80;;;;;;101018.02;;;;107546;1278;28923;-29
2022/06/05 08:15:19;;;;;;;5.10;3.80;;;;;;101013.65;;;;107534;1279;27545;-29
2022/06/05 08:17:46;;;;;;;5.30;3.70;;;;;;101014.73;;;;107527;1277;27767;-29
2022/06/05 08:20:13;;;;;;;6.00;4.00;;;;;;101011.02;;;;107537;1278;29960;-29
2022/06/05 08:22:39;;;;;;;5.90;3.80;;;;;;101011.46;;;;107537;1278;26368;-29
2022/06/05 08:25:07;;;;;;;5.50;3.50;;;;;;101011.17;;;;107545;1277;28955;-29
2022/06/05 08:27:34;;;;;;;6.10;3.70;;;;;;101007.89;;;;107531;1279;26371;-29
2022/06/05 08:30:00;;;;;;;5.50;3.90;;;;;;101012.22;;;;107534;1278;29102;-29
2022/06/05 08:32:28;;;;;;;5.10;4.00;;;;;;101011.98;;;;107502;1279;28991;-29
2022/06/05 08:34:56;;;;;;;6.20;4.20;;;;;;101012.93;;;;107564;1277;28844;-29
2022/06/05 08:43:26;;;;;;;6.20;4.00;;;;;;101006.73;;;;107516;1278;28166;-29
2022/06/05 08:46:05;;;;;;;5.20;4.10;;;;;;101005.69;;;;107550;1278;29875;-29
2022/06/05 08:48:51;;;;;;;5.70;4.00;;;;;;101004.74;;;;107487;1279;29393;-29
2022/06/05 08:51:48;;;;;;;5.50;4.30;;;;;;101004.98;;;;107564;1277;28942;-29
2022/06/05 08:54:37;;;;;;;5.50;4.10;;;;;;101003.70;;;;107546;1278;28089;-29
2022/06/05 08:57:18;;;;;;;5.60;4.40;;;;;;101002.52;;;;107551;1278;27567;-29
2022/06/05 09:00:08;;;;;;;5.30;3.90;;;;;;101001.05;;;;107574;1278;30048;-29
2022/06/05 09:02:48;;;;;;;5.30;4.20;;;;;;101000.73;;;;107524;1278;26716;-29
2022/06/05 09:05:32;;;;;;;5.40;3.90;;;;;;101001.19;;;;107543;1278;27849;-29
2022/06/05 09:08:04;;;;;;;5.50;4.40;;;;;;100998.81;;;;107535;1279;27764;-31
2022/06/05 09:10:39;;;;;;;6.80;4.20;;;;;;100996.52;;;;107554;1280;30133;-28
2022/06/05 09:13:28;;;;;;;5.50;4.10;;;;;;100998.10;;;;107579;1278;27969;-31
2022/06/05 09:16:02;;;;;;;6.00;4.20;;;;;;100992.15;;;;107401;1280;29115;-31
2022/06/05 09:18:38;;;;;;;6.90;4.20;;;;;;100994.26;;;;107607;1277;29073;-30
2022/06/05 09:22:04;;;;;;;6.70;4.00;;;;;;100990.30;;;;107532;1280;28964;-31
2022/06/05 09:24:59;;;;;;;5.50;3.90;;;;;;100988.48;;;;107497;1278;29172;-28
2022/06/05 09:27:28;;;;;;;5.60;4.30;;;;;;100988.06;;;;107568;1278;26349;-28
2022/06/05 09:30:10;;;;;;;5.80;4.00;;;;;;100991.33;;;;107562;1278;28481;-27
2022/06/05 09:33:14;;;;;;;6.20;4.10;;;;;;100992.46;;;;107510;1278;29064;-27
2022/06/05 09:36:02;;;;;;;5.10;3.80;;;;;;100993.22;;;;107623;1277;27524;-27
2022/06/05 09:38:36;;;;;;;5.50;4.00;;;;;;100993.55;;;;107524;1278;29455;-27
2022/06/05 09:41:37;;;;;;;5.60;3.60;;;;;;100992.48;;;;107499;1280;28922;-31
2022/06/05 09:44:26;;;;;;;5.00;3.50;;;;;;100989.45;;;;107560;1278;28913;-31
2022/06/05 09:47:00;;;;;;;9.30;4.30;;;;;;100989.57;;;;107553;1278;29926;-27
2022/06/05 09:49:45;;;;;;;5.20;3.60;;;;;;100985.35;;;;107503;1280;28986;-27
2022/06/05 09:52:20;;;;;;;5.00;3.30;;;;;;100985.70;;;;107538;1280;27839;-27
2022/06/05 09:54:57;;;;;;;4.60;3.40;;;;;;100985.77;;;;107586;1278;29152;-28
2022/06/05 10:00:45;;;;;;;5.20;3.00;;;;;;100976.59;;;;107579;1278;27550;-29
2022/06/05 10:03:29;;;;;;;4.80;3.10;;;;;;100980.59;;;;107529;1281;28848;-29
2022/06/05 10:06:14;;;;;;;5.60;3.10;;;;;;100984.48;;;;107498;1281;29125;-29
2022/06/05 10:08:45;;;;;;;4.90;3.40;;;;;;100981.79;;;;107586;1277;29900;-29
2022/06/05 10:11:52;;;;;;;4.70;3.10;;;;;;100980.40;;;;107613;1278;29087;-29
2022/06/05 10:14:44;;;;;;;5.40;3.20;;;;;;100980.16;;;;107374;1281;26865;-30
2022/06/05 10:17:30;;;;;;;4.80;3.40;;;;;;100980.83;;;;107596;1278;26572;-29
2022/06/05 10:20:12;;;;;;;5.00;3.20;;;;;;100979.34;;;;107593;1277;29950;-29
2022/06/05 10:22:39;;;;;;;4.60;3.00;;;;;;100982.48;;;;107606;1278;28976;-29
2022/06/05 10:25:38;;;;;;;4.60;2.90;;;;;;100985.59;;;;107594;1278;29008;-29
2022/06/05 10:28:22;;;;;;;5.90;3.60;;;;;;100984.06;;;;107456;1281;28936;-30
2022/06/05 10:31:11;;;;;;;6.40;3.70;;;;;;100984.91;;;;107560;1278;29789;-29
2022/06/05 10:33:44;;;;;;;5.10;3.20;;;;;;100986.08;;;;107578;1278;28156;-29
2022/06/05 10:36:19;;;;;;;5.10;3.50;;;;;;100981.38;;;;107520;1278;28819;-28
2022/06/05 10:39:12;;;;;;;5.20;3.50;;;;;;100976.97;;;;107524;1278;28957;-30
2022/06/05 10:42:04;;;;;;;4.90;3.30;;;;;;100977.45;;;;107514;1278;26503;-30
2022/06/05 10:44:52;;;;;;;5.20;3.40;;;;;;100976.64;;;;107596;1278;29824;-28
2022/06/05 10:47:33;;;;;;;5.70;3.10;;;;;;100978.83;;;;107626;1278;27835;-29
2022/06/05 10:50:15;;;;;;;5.60;3.30;;;;;;100976.25;;;;107576;1281;29638;-29
2022/06/05 10:53:12;;;;;;;5.80;3.30;;;;;;100978.01;;;;107508;1278;27748;-29
2022/06/05 10:56:03;;;;;;;5.40;3.10;;;;;;100980.34;;;;107510;1281;27539;-29
2022/06/05 10:59:05;;;;;;;5.30;3.20;;;;;;100980.39;;;;107524;1277;29006;-29
2022/06/05 11:02:09;;;;;;;5.30;3.00;;;;;;100973.25;;;;107580;1277;29630;-29
2022/06/05 11:05:26;;;;;;;5.20;3.30;;;;;;100969.12;;;;107569;1278;30044;-29
2022/06/05 11:08:26;;;;;;;4.90;3.20;;;;;;100963.80;;;;107417;1281;29918;-29
2022/06/05 11:14:32;;;;;;;6.60;3.00;;;;;;100965.83;;;;107584;1278;29227;-29
2022/06/05 11:17:29;;;;;;;5.00;3.10;;;;;;100956.20;;;;107580;1278;30908;-29
2022/06/05 11:20:15;;;;;;;4.50;3.00;;;;;;100955.02;;;;107559;1277;29005;-29
2022/06/05 11:22:56;;;;;;;4.30;2.90;;;;;;100954.27;;;;107504;1277;29427;-29
2022/06/05 11:25:46;;;;;;;4.30;2.60;;;;;;100950.23;;;;107586;1278;28996;-29
2022/06/05 11:28:47;;;;;;;4.00;2.60;;;;;;100949.42;;;;107539;1281;29039;-29
2022/06/05 11:32:04;;;;;;;4.80;2.90;;;;;;100947.45;;;;107604;1278;27792;-29
2022/06/05 11:35:00;;;;;;;4.60;3.00;;;;;;100949.11;;;;107593;1278;27528;-29
2022/06/05 11:37:58;;;;;;;4.00;2.70;;;;;;100948.59;;;;107598;1278;30198;-29
2022/06/05 11:41:05;;;;;;;4.30;2.70;;;;;;100941.56;;;;107600;1277;28931;-29
2022/06/05 11:43:35;;;;;;;4.60;2.80;;;;;;100941.16;;;;107480;1278;26505;-29
2022/06/05 11:46:08;;;;;;;4.60;3.00;;;;;;100938.08;;;;107582;1277;29991;-29
2022/06/05 11:48:40;;;;;;;4.80;2.80;;;;;;100932.52;;;;107579;1278;27715;-29
2022/06/05 11:51:21;;;;;;;4.80;3.10;;;;;;100930.30;;;;107521;1278;27765;-29
2022/06/05 11:54:07;;;;;;;4.60;2.80;;;;;;100934.44;;;;107592;1277;28818;-29
2022/06/05 11:57:07;;;;;;;4.30;3.00;;;;;;100928.38;;;;107600;1277;27802;-29
2022/06/05 11:59:55;;;;;;;4.40;3.00;;;;;;100926.31;;;;107600;1278;29229;-28
2022/06/05 12:02:48;;;;;;;4.70;2.90;;;;;;100921.13;;;;107527;1277;28855;-29
2022/06/05 12:05:37;;;;;;;4.50;3.00;;;;;;100916.09;;;;107522;1277;28239;-29
2022/06/05 12:08:16;;;;;;;4.50;2.60;;;;;;100911.45;;;;107520;1277;27758;-29
2022/06/05 12:11:23;;;;;;;4.10;2.60;;;;;;100908.47;;;;107519;1277;28732;-30
2022/06/05 12:14:20;;;;;;;3.90;2.60;;;;;;100906.61;;;;107450;1277;29241;-28
2022/06/05 12:17:13;;;;;;;4.00;2.60;;;;;;100904.98;;;;107490;1277;27813;-28
2022/06/05 12:20:23;;;;;;;4.20;2.60;;;;;;100903.98;;;;107507;1277;29736;-28
2022/06/05 12:22:58;;;;;;;4.10;2.60;;;;;;100900.65;;;;107502;1277;27943;-29
2022/06/05 12:25:34;;;;;;;4.40;2.70;;;;;;100899.89;;;;107532;1276;27899;-29
2022/06/05 12:28:17;;;;;;;4.60;2.80;;;;;;100896.94;;;;107514;1277;29022;-29
2022/06/05 12:30:56;;;;;;;4.70;3.00;;;;;;100894.42;;;;107521;1278;28991;-29
2022/06/05 12:33:35;;;;;;;4.20;2.80;;;;;;100890.04;;;;107513;1277;28787;-29
2022/06/05 12:36:15;;;;;;;4.00;2.70;;;;;;100889.66;;;;107524;1279;28991;-31
2022/06/05 12:38:54;;;;;;;4.10;2.70;;;;;;100889.08;;;;107546;1277;27921;-29
2022/06/05 12:41:42;;;;;;;3.90;2.50;;;;;;100884.20;;;;107407;1278;27597;-30
2022/06/05 12:44:25;;;;;;;4.50;2.80;;;;;;100878.65;;;;107514;1277;28841;-30
2022/06/05 12:47:29;;;;;;;4.60;2.80;;;;;;100878.67;;;;107507;1277;29047;-29
2022/06/05 12:49:55;;;;;;;;;;;;;;100875.59;;;;107526;1277;27750;-29
2022/06/05 12:52:37;;;;;;;4.40;2.60;;;;;;100874.84;;;;107512;1277;27691;-29
2022/06/05 12:55:21;;;;;;;4.40;2.50;;;;;;100867.52;;;;107508;1277;29323;-28
2022/06/05 12:58:02;;;;;;;4.10;2.60;;;;;;100868.05;;;;107508;1277;29017;-28
2022/06/05 13:01:05;;;;;;;4.70;2.40;;;;;;100870.09;;;;107519;1278;27959;-28
2022/06/05 13:03:54;;;;;;;4.60;2.60;;;;;;100865.33;;;;107455;1279;28046;-29
2022/06/05 13:07:09;;;;;;;3.90;2.50;;;;;;100862.66;;;;107510;1277;28090;-29
2022/06/05 13:09:48;;;;;;;4.00;2.80;;;;;;100861.10;;;;107294;1281;27775;-29
2022/06/05 13:12:36;;;;;;;4.40;2.50;;;;;;100860.79;;;;107519;1278;27916;-29
2022/06/05 13:15:28;;;;;;;4.00;2.50;;;;;;100861.84;;;;107497;1277;29996;-29
2022/06/05 13:18:10;;;;;;;4.30;2.60;;;;;;100860.88;;;;107485;1277;27977;-29
2022/06/05 13:21:08;;;;;;;4.00;2.50;;;;;;100863.71;;;;107518;1277;28571;-29
2022/06/05 13:24:30;;;;;;;4.30;2.90;;;;;;100861.90;;;;107513;1277;30059;-29
2022/06/05 13:27:18;;;;;;;4.60;2.90;;;;;;100860.13;;;;107276;1277;302968;-29
2022/06/05 13:29:51;;;;;;;5.30;3.40;;;;;;100849.49;;;;107517;1278;27997;-28
2022/06/05 13:32:29;;;;;;;4.60;3.20;;;;;;100849.36;;;;107504;1277;28947;-28
2022/06/05 13:35:08;;;;;;;4.90;3.40;;;;;;100846.43;;;;107497;1277;27010;-28
2022/06/05 13:38:02;;;;;;;4.90;3.10;;;;;;100840.84;;;;107501;1278;29263;-29
2022/06/05 13:41:15;;;;;;;4.80;3.30;;;;;;100843.83;;;;107503;1280;29933;-29
2022/06/05 13:43:50;;;;;;;5.80;3.50;;;;;;100838.79;;;;107326;1279;27986;-29
2022/06/05 13:46:26;;;;;;;5.10;3.60;;;;;;100840.05;;;;107503;1277;29785;-28
2022/06/05 13:49:28;;;;;;;6.20;3.60;;;;;;100840.73;;;;107494;1277;28861;-28
2022/06/05 13:52:21;;;;;;;6.00;3.10;;;;;;100844.19;;;;107508;1277;28120;-29
2022/06/05 13:55:05;;;;;;;6.00;3.90;;;;;;100838.05;;;;107521;1278;27576;-29
2022/06/05 13:58:13;;;;;;;5.50;3.80;;;;;;100833.34;;;;107504;1277;29876;-29
2022/06/05 14:01:16;;;;;;;5.40;3.90;;;;;;100834.95;;;;107105;1280;28933;-29
2022/06/05 14:03:51;;;;;;;5.20;3.70;;;;;;100833.78;;;;107496;1278;28945;-29
2022/06/05 14:06:37;;;;;;;6.70;4.10;;;;;;100832.08;;;;107496;1278;29006;-30
2022/06/05 14:09:09;;;;;;;6.60;3.80;;;;;;100835.66;;;;107517;1277;29988;-30
2022/06/05 14:11:40;;;;;;;5.40;3.70;;;;;;100833.98;;;;107528;1278;29619;-30